createdAt,value
2024-04-30T00:00:16.064Z,54.69
2024-04-30T00:01:16.191Z,55.07
2024-04-30T00:02:16.271Z,51.27
2024-04-30T00:03:16.371Z,50.78
2024-04-30T00:04:16.497Z,51.12
2024-04-30T00:05:16.573Z,50.00
2024-04-30T00:06:16.691Z,51.23
2024-04-30T00:07:16.752Z,50.11
2024-04-30T00:08:16.850Z,50.42
2024-04-30T00:09:17.035Z,50.99
2024-04-30T00:10:17.095Z,50.18
2024-04-30T00:11:17.172Z,52.25
2024-04-30T00:12:17.255Z,50.00
2024-04-30T00:13:17.431Z,50.12
2024-04-30T00:14:17.463Z,50.00
2024-04-30T00:15:18.186Z,52.58
2024-04-30T00:16:17.675Z,53.60
2024-04-30T00:17:17.738Z,53.81
2024-04-30T00:18:17.837Z,51.97
2024-04-30T00:19:18.007Z,51.40
2024-04-30T00:20:18.067Z,50.75
2024-04-30T00:21:18.130Z,51.06
2024-04-30T00:22:18.282Z,50.69
2024-04-30T00:23:18.348Z,50.00
2024-04-30T00:24:18.431Z,50.00
2024-04-30T00:25:18.600Z,55.42
2024-04-30T00:26:18.620Z,54.28
2024-04-30T00:27:18.799Z,53.02
2024-04-30T00:28:18.929Z,53.38
2024-04-30T00:29:18.946Z,50.00
2024-04-30T00:30:19.043Z,52.34
2024-04-30T00:31:19.190Z,52.83
2024-04-30T00:32:19.324Z,51.48
2024-04-30T00:33:19.441Z,52.34
2024-04-30T00:34:19.490Z,53.58
2024-04-30T00:35:19.531Z,53.63
2024-04-30T00:36:19.666Z,51.02
2024-04-30T00:37:19.804Z,54.07
2024-04-30T00:38:19.888Z,52.37
2024-04-30T00:39:19.971Z,51.95
2024-04-30T00:40:20.120Z,54.95
2024-04-30T00:41:20.136Z,52.41
2024-04-30T00:42:20.249Z,52.79
2024-04-30T00:43:20.369Z,53.66
2024-04-30T00:44:20.491Z,52.38
2024-04-30T00:45:20.546Z,54.61
2024-04-30T00:46:20.679Z,55.43
2024-04-30T00:47:20.800Z,54.04
2024-04-30T00:48:21.789Z,56.42
2024-04-30T00:49:20.936Z,56.02
2024-04-30T00:50:20.998Z,52.21
2024-04-30T00:51:21.006Z,53.92
2024-04-30T00:52:21.100Z,53.47
2024-04-30T00:53:21.109Z,53.20
2024-04-30T00:54:21.155Z,53.67
2024-04-30T00:55:21.236Z,55.42
2024-04-30T00:56:21.304Z,57.55
2024-04-30T00:57:21.400Z,56.33
2024-04-30T00:58:21.572Z,55.52
2024-04-30T00:59:21.658Z,55.32
2024-04-30T01:00:21.697Z,52.37
2024-04-30T01:01:21.856Z,53.51
2024-04-30T01:02:21.931Z,51.67
2024-04-30T01:03:22.070Z,52.98
2024-04-30T01:04:22.130Z,53.10
2024-04-30T01:05:22.230Z,51.70
2024-04-30T01:06:22.312Z,50.56
2024-04-30T01:07:22.393Z,52.47
2024-04-30T01:08:22.552Z,52.89
2024-04-30T01:09:22.616Z,50.55
2024-04-30T01:10:22.757Z,50.21
2024-04-30T01:11:22.856Z,50.64
2024-04-30T01:12:22.969Z,51.71
2024-04-30T01:13:23.097Z,50.00
2024-04-30T01:14:23.151Z,51.05
2024-04-30T01:15:23.221Z,51.80
2024-04-30T01:16:23.363Z,50.71
2024-04-30T01:17:23.505Z,51.42
2024-04-30T01:18:24.006Z,50.53
2024-04-30T01:19:23.631Z,51.46
2024-04-30T01:20:23.617Z,52.21
2024-04-30T01:21:23.669Z,51.09
2024-04-30T01:22:23.746Z,53.10
2024-04-30T01:23:23.802Z,52.58
2024-04-30T01:24:23.814Z,54.47
2024-04-30T01:25:23.940Z,53.21
2024-04-30T01:26:24.092Z,54.02
2024-04-30T01:27:24.033Z,56.31
2024-04-30T01:28:24.045Z,59.55
2024-04-30T01:29:24.075Z,60.82
2024-04-30T01:30:24.114Z,60.92
2024-04-30T01:31:24.175Z,62.21
2024-04-30T01:32:24.247Z,61.32
2024-04-30T01:33:24.327Z,60.07
2024-04-30T01:34:24.370Z,55.89
2024-04-30T01:35:24.386Z,58.18
2024-04-30T01:36:24.496Z,57.07
2024-04-30T01:37:24.657Z,54.58
2024-04-30T01:38:24.747Z,55.09
2024-04-30T01:39:24.838Z,54.05
2024-04-30T01:40:24.917Z,54.13
2024-04-30T01:41:25.218Z,53.35
2024-04-30T01:42:25.114Z,53.71
2024-04-30T01:43:25.194Z,55.00
2024-04-30T01:44:25.296Z,53.98
2024-04-30T01:45:25.411Z,52.60
2024-04-30T01:46:25.549Z,53.34
2024-04-30T01:47:25.634Z,50.56
2024-04-30T01:48:25.813Z,50.00
2024-04-30T01:49:25.859Z,51.54
2024-04-30T01:50:25.951Z,50.00
2024-04-30T01:51:26.034Z,51.99
2024-04-30T01:52:26.219Z,52.38
2024-04-30T01:53:26.206Z,50.70
2024-04-30T01:54:26.318Z,50.87
2024-04-30T01:55:26.463Z,51.51
2024-04-30T01:56:26.539Z,51.62
2024-04-30T01:57:26.632Z,50.88
2024-04-30T01:58:26.771Z,51.51
2024-04-30T01:59:26.837Z,52.25
2024-04-30T02:00:26.931Z,55.00
2024-04-30T02:01:27.084Z,52.92
2024-04-30T02:02:27.143Z,53.61
2024-04-30T02:03:27.290Z,50.86
2024-04-30T02:04:28.806Z,50.83
2024-04-30T02:05:28.452Z,50.93
2024-04-30T02:06:27.299Z,51.51
2024-04-30T02:07:27.349Z,52.21
2024-04-30T02:08:27.318Z,54.38
2024-04-30T02:09:27.324Z,57.79
2024-04-30T02:10:27.393Z,59.38
2024-04-30T02:11:27.399Z,60.35
2024-04-30T02:12:27.356Z,61.21
2024-04-30T02:13:27.430Z,64.09
2024-04-30T02:14:27.430Z,65.55
2024-04-30T02:15:27.477Z,66.81
2024-04-30T02:16:27.777Z,68.40
2024-04-30T02:17:27.763Z,71.93
2024-04-30T02:18:27.835Z,75.55
2024-04-30T02:19:27.939Z,78.63
2024-04-30T02:20:27.992Z,78.96
2024-04-30T02:21:28.137Z,85.01
2024-04-30T02:22:28.231Z,85.32
2024-04-30T02:23:28.322Z,88.62
2024-04-30T02:24:28.415Z,91.02
2024-04-30T02:25:28.617Z,94.67
2024-04-30T02:26:28.627Z,98.97
2024-04-30T02:27:28.711Z,99.94
2024-04-30T02:28:28.897Z,105.03
2024-04-30T02:29:28.901Z,105.56
2024-04-30T02:30:29.054Z,107.91
2024-04-30T02:31:29.198Z,111.98
2024-04-30T02:32:29.250Z,113.45
2024-04-30T02:33:29.365Z,116.92
2024-04-30T02:34:29.476Z,120.60
2024-04-30T02:35:29.517Z,122.22
2024-04-30T02:36:29.621Z,123.41
2024-04-30T02:37:29.793Z,125.65
2024-04-30T02:38:29.836Z,128.86
2024-04-30T02:39:29.929Z,130.95
2024-04-30T02:40:30.024Z,136.29
2024-04-30T02:41:30.116Z,132.41
2024-04-30T02:42:30.222Z,135.00
2024-04-30T02:43:30.392Z,136.96
2024-04-30T02:44:30.414Z,140.24
2024-04-30T02:45:30.470Z,141.70
2024-04-30T02:46:30.661Z,141.62
2024-04-30T02:47:30.743Z,141.29
2024-04-30T02:48:30.748Z,145.84
2024-04-30T02:49:30.910Z,147.04
2024-04-30T02:50:30.885Z,150.69
2024-04-30T02:51:30.956Z,149.15
2024-04-30T02:52:31.190Z,153.79
2024-04-30T02:53:31.097Z,154.21
2024-04-30T02:54:31.169Z,152.81
2024-04-30T02:55:31.329Z,154.83
2024-04-30T02:56:31.303Z,153.13
2024-04-30T02:57:31.373Z,153.43
2024-04-30T02:58:31.594Z,153.80
2024-04-30T02:59:31.528Z,154.88
2024-04-30T03:00:31.692Z,156.64
2024-04-30T03:01:31.696Z,154.93
2024-04-30T03:02:31.733Z,154.89
2024-04-30T03:03:31.851Z,153.68
2024-04-30T03:04:31.901Z,154.28
2024-04-30T03:05:31.903Z,154.29
2024-04-30T03:06:31.984Z,152.02
2024-04-30T03:07:32.192Z,153.36
2024-04-30T03:08:32.133Z,151.46
2024-04-30T03:09:32.199Z,153.30
2024-04-30T03:10:32.346Z,151.62
2024-04-30T03:11:32.432Z,153.62
2024-04-30T03:12:32.349Z,152.02
2024-04-30T03:13:32.475Z,151.75
2024-04-30T03:14:32.538Z,154.34
2024-04-30T03:15:32.582Z,152.34
2024-04-30T03:16:32.792Z,150.00
2024-04-30T03:17:32.785Z,153.96
2024-04-30T03:18:32.828Z,155.63
2024-04-30T03:19:32.945Z,156.48
2024-04-30T03:20:32.954Z,157.00
2024-04-30T03:21:33.012Z,155.79
2024-04-30T03:22:33.133Z,157.50
2024-04-30T03:23:33.166Z,160.79
2024-04-30T03:24:33.311Z,160.07
2024-04-30T03:25:33.370Z,161.43
2024-04-30T03:26:33.387Z,160.49
2024-04-30T03:27:33.442Z,158.46
2024-04-30T03:28:33.565Z,159.61
2024-04-30T03:29:33.574Z,159.28
2024-04-30T03:30:33.642Z,161.86
2024-04-30T03:31:34.017Z,162.37
2024-04-30T03:32:33.866Z,163.19
2024-04-30T03:33:33.917Z,165.34
2024-04-30T03:34:33.956Z,163.64
2024-04-30T03:35:33.980Z,166.73
2024-04-30T03:36:34.045Z,166.87
2024-04-30T03:37:34.353Z,165.87
2024-04-30T03:38:34.200Z,167.60
2024-04-30T03:39:34.239Z,166.70
2024-04-30T03:40:34.411Z,168.11
2024-04-30T03:41:34.392Z,168.14
2024-04-30T03:42:34.451Z,170.61
2024-04-30T03:43:34.594Z,170.84
2024-04-30T03:44:34.584Z,170.76
2024-04-30T03:45:34.650Z,171.37
2024-04-30T03:46:34.910Z,172.73
2024-04-30T03:47:34.863Z,173.15
2024-04-30T03:48:34.920Z,172.54
2024-04-30T03:49:35.102Z,175.04
2024-04-30T03:50:35.033Z,177.50
2024-04-30T03:51:35.146Z,177.23
2024-04-30T03:52:35.270Z,176.66
2024-04-30T03:53:35.305Z,176.80
2024-04-30T03:54:35.362Z,178.98
2024-04-30T03:55:35.503Z,177.47
2024-04-30T03:56:35.508Z,179.41
2024-04-30T03:57:35.614Z,176.75
2024-04-30T03:58:35.758Z,178.93
2024-04-30T03:59:35.800Z,176.30
2024-04-30T04:00:35.884Z,177.76
2024-04-30T04:01:35.980Z,179.55
2024-04-30T04:02:36.114Z,177.34
2024-04-30T04:03:36.172Z,180.27
2024-04-30T04:04:36.287Z,180.64
2024-04-30T04:05:36.326Z,178.90
2024-04-30T04:06:36.392Z,180.83
2024-04-30T04:07:36.575Z,181.30
2024-04-30T04:08:36.592Z,181.36
2024-04-30T04:09:36.665Z,181.46
2024-04-30T04:10:36.868Z,182.28
2024-04-30T04:11:36.908Z,183.78
2024-04-30T04:12:36.947Z,183.51
2024-04-30T04:13:37.073Z,179.54
2024-04-30T04:14:37.149Z,182.72
2024-04-30T04:15:37.231Z,183.05
2024-04-30T04:16:37.416Z,183.25
2024-04-30T04:17:37.480Z,182.36
2024-04-30T04:18:37.580Z,183.33
2024-04-30T04:19:37.730Z,184.57
2024-04-30T04:20:37.719Z,186.42
2024-04-30T04:21:37.781Z,187.38
2024-04-30T04:22:37.943Z,188.84
2024-04-30T04:23:37.992Z,189.93
2024-04-30T04:24:38.087Z,190.06
2024-04-30T04:25:38.187Z,190.36
2024-04-30T04:26:45.362Z,50.00
2024-04-30T04:27:45.330Z,50.00
2024-04-30T04:28:45.341Z,50.00
2024-04-30T04:29:45.377Z,50.00
2024-04-30T04:30:45.392Z,50.00
2024-04-30T04:31:52.628Z,50.00
2024-04-30T04:32:52.620Z,50.00
2024-04-30T04:33:52.572Z,50.00
2024-04-30T04:34:52.562Z,50.00
2024-04-30T04:35:52.590Z,50.00
2024-04-30T04:36:52.549Z,52.31
2024-04-30T04:37:52.587Z,54.14
2024-04-30T04:38:52.567Z,51.57
2024-04-30T04:39:52.589Z,53.48
2024-04-30T04:40:52.582Z,54.60
2024-04-30T04:41:52.561Z,52.78
2024-04-30T04:42:52.569Z,56.29
2024-04-30T04:43:52.591Z,59.48
2024-04-30T04:44:52.582Z,61.30
2024-04-30T04:45:52.574Z,64.56
2024-04-30T04:46:52.587Z,64.82
2024-04-30T04:47:52.683Z,64.94
2024-04-30T04:48:52.589Z,62.01
2024-04-30T04:49:52.601Z,65.21
2024-04-30T04:50:52.580Z,65.74
2024-04-30T04:51:52.558Z,65.89
2024-04-30T04:52:52.602Z,64.50
2024-04-30T04:53:52.604Z,66.40
2024-04-30T04:54:52.582Z,65.02
2024-04-30T04:55:52.595Z,67.12
2024-04-30T04:56:52.587Z,66.87
2024-04-30T04:57:52.600Z,66.73
2024-04-30T04:58:52.607Z,64.47
2024-04-30T04:59:52.613Z,65.17
2024-04-30T05:00:52.743Z,65.06
2024-04-30T05:01:52.787Z,67.07
2024-04-30T05:02:52.656Z,67.25
2024-04-30T05:03:52.658Z,67.28
2024-04-30T05:04:52.647Z,67.95
2024-04-30T05:05:52.591Z,69.41
2024-04-30T05:06:54.575Z,68.62
2024-04-30T05:07:52.733Z,68.36
2024-04-30T05:08:52.783Z,68.59
2024-04-30T05:09:52.811Z,69.92
2024-04-30T05:10:52.845Z,69.37
2024-04-30T05:11:52.838Z,69.98
2024-04-30T05:12:52.838Z,71.77
2024-04-30T05:13:52.879Z,72.30
2024-04-30T05:14:55.655Z,72.30
2024-04-30T05:15:52.924Z,76.54
2024-04-30T05:16:52.980Z,75.64
2024-04-30T05:18:19.534Z,50.00
2024-04-30T05:19:19.562Z,50.00
2024-04-30T05:20:19.522Z,50.00
2024-04-30T05:21:19.520Z,50.00
2024-04-30T05:22:19.565Z,50.00
2024-04-30T05:23:19.515Z,51.90
2024-04-30T05:24:19.553Z,53.52
2024-04-30T05:25:19.537Z,51.92
2024-04-30T05:26:19.516Z,53.65
2024-04-30T05:27:19.512Z,54.39
2024-04-30T05:28:19.568Z,56.60
2024-04-30T05:29:19.523Z,57.54
2024-04-30T05:30:19.517Z,59.78
2024-04-30T05:31:19.578Z,61.96
2024-04-30T05:32:19.502Z,63.61
2024-04-30T05:33:19.601Z,65.61
2024-04-30T05:34:19.576Z,66.61
2024-04-30T05:35:19.503Z,68.72
2024-04-30T05:36:19.525Z,76.08
2024-04-30T05:37:19.617Z,75.88
2024-04-30T05:38:19.597Z,80.04
2024-04-30T05:39:19.567Z,81.70
2024-04-30T05:40:19.650Z,81.37
2024-04-30T05:41:19.573Z,85.34
2024-04-30T05:42:19.560Z,87.12
2024-04-30T05:43:19.718Z,93.89
2024-04-30T05:44:19.550Z,94.91
2024-04-30T05:45:19.582Z,100.93
2024-04-30T05:46:19.716Z,101.66
2024-04-30T05:47:19.575Z,105.13
2024-04-30T05:48:19.617Z,109.13
2024-04-30T05:49:19.605Z,112.47
2024-04-30T05:50:19.587Z,119.86
2024-04-30T05:51:19.578Z,126.85
2024-04-30T05:52:19.609Z,130.62
2024-04-30T05:53:19.585Z,133.33
2024-04-30T05:54:19.661Z,138.16
2024-04-30T05:55:19.751Z,141.01
2024-04-30T05:56:19.815Z,153.25
2024-04-30T05:57:19.879Z,163.74
2024-04-30T05:58:19.989Z,175.52
2024-04-30T05:59:20.092Z,183.26
2024-04-30T06:00:20.135Z,193.40
2024-04-30T06:01:20.302Z,200.57
2024-04-30T06:02:20.283Z,198.66
2024-04-30T06:03:20.421Z,198.61
2024-04-30T06:04:20.571Z,199.48
2024-04-30T06:05:20.691Z,198.93
2024-04-30T06:06:20.666Z,200.00
2024-04-30T06:07:20.748Z,199.71
2024-04-30T06:08:20.789Z,196.77
2024-04-30T06:09:20.883Z,196.89
2024-04-30T06:10:21.016Z,198.79
2024-04-30T06:11:21.144Z,198.07
2024-04-30T06:12:21.138Z,196.28
2024-04-30T06:13:21.266Z,190.43
2024-04-30T06:14:23.997Z,191.17
2024-04-30T06:15:21.500Z,187.84
2024-04-30T06:16:21.345Z,183.77
2024-04-30T06:17:21.355Z,179.06
2024-04-30T06:18:21.402Z,177.39
2024-04-30T06:19:21.373Z,176.93
2024-04-30T06:20:21.307Z,177.83
2024-04-30T06:21:30.354Z,177.84
2024-04-30T06:22:22.377Z,177.95
2024-04-30T06:23:21.329Z,178.25
2024-04-30T06:24:21.313Z,178.59
2024-04-30T06:25:21.347Z,179.60
2024-04-30T06:26:21.310Z,179.84
2024-04-30T06:27:21.351Z,179.98
2024-04-30T06:28:21.364Z,179.64
2024-04-30T06:29:21.378Z,181.90
2024-04-30T06:30:21.326Z,185.34
2024-04-30T06:31:21.416Z,187.37
2024-04-30T06:32:21.322Z,189.08
2024-04-30T06:33:21.463Z,188.54
2024-04-30T06:34:21.460Z,188.71
2024-04-30T06:35:21.506Z,191.34
2024-04-30T06:36:21.612Z,195.23
2024-04-30T06:37:21.707Z,200.00
2024-04-30T06:38:21.737Z,200.00
2024-04-30T06:39:21.842Z,197.73
2024-04-30T06:40:23.389Z,198.71
2024-04-30T06:41:21.902Z,198.30
2024-04-30T06:42:21.904Z,199.56
2024-04-30T06:43:21.941Z,199.35
2024-04-30T06:44:21.971Z,199.19
2024-04-30T06:45:22.023Z,199.72
2024-04-30T06:46:21.953Z,200.00
2024-04-30T06:47:22.010Z,199.91
2024-04-30T06:48:22.002Z,199.73
2024-04-30T06:49:24.124Z,199.84
2024-04-30T06:50:21.946Z,199.99
2024-04-30T06:51:21.966Z,200.77
2024-04-30T06:52:21.958Z,203.66
2024-04-30T06:53:21.931Z,208.93
2024-04-30T06:54:21.975Z,217.32
2024-04-30T06:55:21.997Z,208.33
2024-04-30T06:56:21.958Z,200.00
2024-04-30T06:57:22.010Z,197.86
2024-04-30T06:58:21.972Z,196.39
2024-04-30T06:59:21.972Z,197.00
2024-04-30T07:00:21.970Z,199.60
2024-04-30T07:01:22.021Z,200.00
2024-04-30T07:02:21.967Z,199.81
2024-04-30T07:03:21.941Z,200.00
2024-04-30T07:04:22.027Z,199.87
2024-04-30T07:05:22.020Z,200.00
2024-04-30T07:06:21.963Z,200.00
2024-04-30T07:07:21.977Z,199.99
2024-04-30T07:08:21.969Z,199.94
2024-04-30T07:09:21.986Z,200.00
2024-04-30T07:10:22.016Z,199.77
2024-04-30T07:11:21.990Z,200.00
2024-04-30T07:12:21.969Z,200.00
2024-04-30T07:13:21.990Z,200.00
2024-04-30T07:14:22.016Z,199.89
2024-04-30T07:15:21.970Z,200.00
2024-04-30T07:16:22.006Z,199.93
2024-04-30T07:17:22.050Z,200.00
2024-04-30T07:18:22.028Z,200.00
2024-04-30T07:19:22.024Z,200.00
2024-04-30T07:20:21.980Z,199.71
2024-04-30T07:21:21.962Z,200.00
2024-04-30T07:22:22.036Z,199.51
2024-04-30T07:23:21.975Z,200.00
2024-04-30T07:24:22.038Z,200.00
2024-04-30T07:25:22.013Z,199.34
2024-04-30T07:26:21.992Z,199.69
2024-04-30T07:27:22.084Z,199.54
2024-04-30T07:28:22.202Z,199.80
2024-04-30T07:29:22.221Z,199.93
2024-04-30T07:30:22.264Z,200.00
2024-04-30T07:31:22.408Z,200.00
2024-04-30T07:32:22.507Z,199.75
2024-04-30T07:33:22.586Z,200.00
2024-04-30T07:34:22.818Z,200.00
2024-04-30T07:35:22.716Z,199.73
2024-04-30T07:36:22.779Z,199.61
2024-04-30T07:37:22.908Z,199.18
2024-04-30T07:38:22.879Z,198.94
2024-04-30T07:39:22.983Z,199.15
2024-04-30T07:40:23.087Z,199.07
2024-04-30T07:41:23.105Z,198.80
2024-04-30T07:42:23.143Z,200.00
2024-04-30T07:43:23.263Z,199.91
2024-04-30T07:44:23.257Z,200.00
2024-04-30T07:45:23.319Z,200.00
2024-04-30T07:46:23.435Z,200.00
2024-04-30T07:47:23.582Z,199.51
2024-04-30T07:48:23.746Z,199.26
2024-04-30T07:49:23.644Z,199.20
2024-04-30T07:50:23.664Z,199.81
2024-04-30T07:51:23.713Z,199.23
2024-04-30T07:52:23.833Z,199.84
2024-04-30T07:53:23.863Z,198.73
2024-04-30T07:54:23.990Z,199.39
2024-04-30T07:55:24.050Z,198.71
2024-04-30T07:56:24.106Z,198.06
2024-04-30T07:57:24.201Z,198.76
2024-04-30T07:58:24.293Z,199.04
2024-04-30T07:59:24.349Z,198.54
2024-04-30T08:00:24.439Z,199.24
2024-04-30T08:01:24.609Z,199.09
2024-04-30T08:02:24.709Z,198.39
2024-04-30T08:03:24.782Z,198.49
2024-04-30T08:04:24.840Z,198.66
2024-04-30T08:05:24.891Z,197.71
2024-04-30T08:06:25.004Z,197.59
2024-04-30T08:07:25.090Z,197.80
2024-04-30T08:08:25.179Z,197.87
2024-04-30T08:09:25.268Z,197.41
2024-04-30T08:10:25.365Z,197.00
2024-04-30T08:11:25.433Z,196.86
2024-04-30T08:12:25.542Z,196.50
2024-04-30T08:13:25.667Z,196.04
2024-04-30T08:14:25.778Z,196.10
2024-04-30T08:15:25.837Z,195.79
2024-04-30T08:16:25.978Z,195.33
2024-04-30T08:17:26.128Z,195.20
2024-04-30T08:18:26.121Z,194.76
2024-04-30T08:19:26.261Z,195.26
2024-04-30T08:20:26.321Z,194.88
2024-04-30T08:21:26.482Z,194.73
2024-04-30T08:22:26.580Z,194.33
2024-04-30T08:23:26.594Z,194.21
2024-04-30T08:24:26.745Z,193.89
2024-04-30T08:25:26.814Z,193.56
2024-04-30T08:26:26.912Z,192.74
2024-04-30T08:27:27.423Z,193.04
2024-04-30T08:28:27.113Z,192.51
2024-04-30T08:29:27.230Z,192.59
2024-04-30T08:30:27.305Z,191.64
2024-04-30T08:31:27.447Z,191.02
2024-04-30T08:32:27.599Z,190.55
2024-04-30T08:33:27.632Z,190.42
2024-04-30T08:34:27.726Z,189.75
2024-04-30T08:35:27.806Z,189.27
2024-04-30T08:36:30.367Z,189.49
2024-04-30T08:38:27.942Z,188.96
2024-04-30T08:39:27.981Z,188.89
2024-04-30T08:40:27.959Z,186.26
2024-04-30T08:41:27.992Z,179.33
2024-04-30T08:42:27.942Z,173.35
2024-04-30T08:43:28.004Z,168.94
2024-04-30T08:44:27.926Z,158.80
2024-04-30T08:45:27.907Z,145.55
2024-04-30T08:46:27.980Z,135.37
2024-04-30T08:47:28.018Z,124.55
2024-04-30T08:48:27.914Z,112.77
2024-04-30T08:49:33.967Z,108.69
2024-04-30T08:50:29.036Z,104.09
2024-04-30T08:51:27.920Z,95.29
2024-04-30T08:52:28.002Z,92.13
2024-04-30T08:53:27.934Z,87.73
2024-04-30T08:54:27.929Z,89.83
2024-04-30T08:55:27.964Z,90.23
2024-04-30T08:56:27.933Z,84.21
2024-04-30T08:57:27.929Z,86.98
2024-04-30T08:58:27.995Z,87.16
2024-04-30T08:59:27.965Z,89.39
2024-04-30T09:00:27.961Z,89.38
2024-04-30T09:01:27.958Z,89.43
2024-04-30T09:02:27.971Z,89.78
2024-04-30T09:03:28.009Z,91.46
2024-04-30T09:04:28.053Z,92.51
2024-04-30T09:05:27.995Z,93.77
2024-04-30T09:06:28.106Z,94.54
2024-04-30T09:07:28.208Z,95.67
2024-04-30T09:08:28.218Z,97.10
2024-04-30T09:09:28.290Z,97.32
2024-04-30T09:10:28.369Z,98.81
2024-04-30T09:11:28.497Z,99.53
2024-04-30T09:12:28.473Z,101.99
2024-04-30T09:13:28.602Z,103.00
2024-04-30T09:14:28.635Z,104.71
2024-04-30T09:15:28.682Z,106.54
2024-04-30T09:16:28.734Z,108.83
2024-04-30T09:17:29.042Z,108.49
2024-04-30T09:18:28.956Z,109.90
2024-04-30T09:19:28.967Z,111.42
2024-04-30T09:20:28.972Z,112.37
2024-04-30T09:21:29.066Z,113.39
2024-04-30T09:22:29.215Z,114.55
2024-04-30T09:23:29.262Z,115.73
2024-04-30T09:24:29.286Z,116.23
2024-04-30T09:25:29.422Z,115.98
2024-04-30T09:26:29.431Z,115.53
2024-04-30T09:27:29.509Z,115.72
2024-04-30T09:28:29.598Z,116.34
2024-04-30T09:29:29.697Z,115.78
2024-04-30T09:30:29.772Z,114.20
2024-04-30T09:31:29.842Z,115.79
2024-04-30T09:32:30.033Z,116.09
2024-04-30T09:33:30.250Z,117.18
2024-04-30T09:34:30.151Z,117.82
2024-04-30T09:35:30.244Z,117.85
2024-04-30T09:36:30.344Z,118.55
2024-04-30T09:37:30.496Z,119.43
2024-04-30T09:38:30.576Z,118.67
2024-04-30T09:39:30.680Z,118.34
2024-04-30T09:40:30.873Z,118.83
2024-04-30T09:41:30.871Z,116.40
2024-04-30T09:42:30.973Z,110.83
2024-04-30T09:43:31.178Z,107.48
2024-04-30T09:44:31.240Z,103.68
2024-04-30T09:45:31.292Z,102.18
2024-04-30T09:46:31.539Z,100.62
2024-04-30T09:47:31.591Z,100.49
2024-04-30T09:48:31.658Z,101.08
2024-04-30T09:49:31.824Z,101.84
2024-04-30T09:50:31.892Z,104.12
2024-04-30T09:51:31.992Z,105.14
2024-04-30T09:52:32.181Z,108.32
2024-04-30T09:53:32.266Z,110.53
2024-04-30T09:54:32.387Z,112.81
2024-04-30T09:55:32.505Z,114.75
2024-04-30T09:56:32.562Z,117.03
2024-04-30T09:57:32.694Z,119.98
2024-04-30T09:58:32.899Z,121.28
2024-04-30T09:59:33.053Z,123.72
2024-04-30T10:00:33.239Z,126.05
2024-04-30T10:01:33.270Z,128.71
2024-04-30T10:02:33.331Z,130.52
2024-04-30T10:03:33.428Z,132.42
2024-04-30T10:04:33.636Z,135.68
2024-04-30T10:05:33.642Z,137.48
2024-04-30T10:06:33.791Z,139.31
2024-04-30T10:07:33.971Z,142.56
2024-04-30T10:08:33.992Z,145.02
2024-04-30T10:09:34.145Z,147.64
2024-04-30T10:10:34.422Z,149.78
2024-04-30T10:11:34.393Z,152.77
2024-04-30T10:12:34.443Z,155.64
2024-04-30T10:13:34.561Z,158.52
2024-04-30T10:14:34.690Z,160.71
2024-04-30T10:15:34.756Z,162.65
2024-04-30T10:16:34.933Z,164.92
2024-04-30T10:17:35.093Z,168.89
2024-04-30T10:18:35.135Z,169.67
2024-04-30T10:19:35.261Z,173.02
2024-04-30T10:20:35.302Z,176.80
2024-04-30T10:21:35.399Z,179.49
2024-04-30T10:22:35.579Z,182.12
2024-04-30T10:23:35.599Z,185.32
2024-04-30T10:24:35.735Z,189.88
2024-04-30T10:25:35.890Z,191.53
2024-04-30T10:26:35.891Z,194.11
2024-04-30T10:27:36.007Z,196.61
2024-04-30T10:28:36.153Z,198.87
2024-04-30T10:29:36.197Z,199.72
2024-04-30T10:30:36.341Z,199.87
2024-04-30T10:31:36.407Z,200.00
2024-04-30T10:32:36.506Z,199.15
2024-04-30T10:33:36.631Z,199.87
2024-04-30T10:34:36.693Z,199.64
2024-04-30T10:35:36.753Z,200.00
2024-04-30T10:36:36.838Z,200.29
2024-04-30T10:37:37.123Z,199.47
2024-04-30T10:38:37.024Z,199.47
2024-04-30T10:39:37.124Z,198.86
2024-04-30T10:40:37.227Z,199.79
2024-04-30T10:41:37.279Z,200.00
2024-04-30T10:42:37.443Z,199.13
2024-04-30T10:43:37.491Z,199.90
2024-04-30T10:44:37.550Z,199.16
2024-04-30T10:45:37.672Z,198.69
2024-04-30T10:46:37.823Z,198.77
2024-04-30T10:47:37.966Z,199.12
2024-04-30T10:48:38.064Z,199.54
2024-04-30T10:49:38.230Z,199.03
2024-04-30T10:50:38.256Z,198.83
2024-04-30T10:51:38.370Z,199.35
2024-04-30T10:52:38.522Z,198.86
2024-04-30T10:53:38.601Z,198.41
2024-04-30T10:54:38.718Z,198.50
2024-04-30T10:55:38.893Z,198.51
2024-04-30T10:56:39.028Z,198.07
2024-04-30T10:57:39.143Z,197.64
2024-04-30T10:58:39.262Z,198.04
2024-04-30T10:59:39.357Z,197.50
2024-04-30T11:00:39.506Z,197.45
2024-04-30T11:01:39.675Z,197.42
2024-04-30T11:02:39.774Z,197.11
2024-04-30T11:03:39.834Z,196.44
2024-04-30T11:04:40.091Z,196.43
2024-04-30T11:05:40.817Z,196.48
2024-04-30T11:06:40.108Z,194.89
2024-04-30T11:07:40.272Z,195.21
2024-04-30T11:08:40.162Z,194.70
2024-04-30T11:09:40.200Z,194.16
2024-04-30T11:10:40.266Z,194.38
2024-04-30T11:11:40.291Z,193.23
2024-04-30T11:12:40.302Z,192.81
2024-04-30T11:13:40.380Z,192.77
2024-04-30T11:14:40.433Z,191.79
2024-04-30T11:15:40.514Z,191.89
2024-04-30T11:16:40.676Z,191.40
2024-04-30T11:17:40.792Z,190.82
2024-04-30T11:18:40.891Z,191.18
2024-04-30T11:19:41.053Z,191.09
2024-04-30T11:20:41.092Z,190.78
2024-04-30T11:21:41.190Z,189.95
2024-04-30T11:22:42.342Z,189.54
2024-04-30T11:23:41.435Z,188.59
2024-04-30T11:24:41.554Z,188.48
2024-04-30T11:25:41.710Z,187.80
2024-04-30T11:26:41.762Z,187.36
2024-04-30T11:27:41.844Z,187.40
2024-04-30T11:28:46.536Z,186.54
2024-04-30T11:29:43.080Z,186.56
2024-04-30T11:30:42.003Z,186.57
2024-04-30T11:31:42.046Z,186.31
2024-04-30T11:32:42.096Z,185.98
2024-04-30T11:33:42.050Z,185.02
2024-04-30T11:34:42.058Z,184.67
2024-04-30T11:35:41.988Z,184.64
2024-04-30T11:36:42.010Z,183.34
2024-04-30T11:37:42.215Z,182.88
2024-04-30T11:38:42.053Z,182.80
2024-04-30T11:39:42.082Z,182.30
2024-04-30T11:40:42.124Z,181.15
2024-04-30T11:41:48.714Z,181.48
2024-04-30T11:42:45.176Z,181.48
2024-04-30T11:43:42.063Z,181.51
2024-04-30T11:44:42.011Z,180.24
2024-04-30T11:45:42.019Z,179.48
2024-04-30T11:46:42.134Z,179.15
2024-04-30T11:47:42.199Z,178.54
2024-04-30T11:48:42.104Z,178.47
2024-04-30T11:49:42.222Z,177.32
2024-04-30T11:50:42.025Z,176.82
2024-04-30T11:51:42.040Z,176.92
2024-04-30T11:52:42.260Z,176.82
2024-04-30T11:53:42.034Z,176.21
2024-04-30T11:54:42.033Z,175.68
2024-04-30T11:55:42.138Z,176.16
2024-04-30T11:56:42.086Z,174.45
2024-04-30T11:57:42.038Z,174.90
2024-04-30T11:58:42.097Z,175.25
2024-04-30T11:59:42.140Z,174.00
2024-04-30T12:00:42.075Z,173.98
2024-04-30T12:01:42.072Z,173.44
2024-04-30T12:02:42.109Z,173.60
2024-04-30T12:03:42.059Z,173.23
2024-04-30T12:04:42.142Z,173.00
2024-04-30T12:05:42.176Z,171.42
2024-04-30T12:06:42.052Z,171.61
2024-04-30T12:07:42.150Z,171.33
2024-04-30T12:08:42.028Z,171.24
2024-04-30T12:09:42.068Z,170.84
2024-04-30T12:10:42.151Z,170.21
2024-04-30T12:11:42.204Z,169.07
2024-04-30T12:12:42.299Z,170.32
2024-04-30T12:13:42.401Z,169.31
2024-04-30T12:14:42.514Z,168.17
2024-04-30T12:15:42.616Z,168.05
2024-04-30T12:16:46.903Z,168.42
2024-04-30T12:17:43.821Z,168.45
2024-04-30T12:18:42.740Z,168.43
2024-04-30T12:19:42.903Z,168.13
2024-04-30T12:20:42.773Z,167.86
2024-04-30T12:21:42.753Z,167.32
2024-04-30T12:22:42.827Z,166.25
2024-04-30T12:23:44.096Z,165.80
2024-04-30T12:24:42.778Z,165.54
2024-04-30T12:25:42.928Z,165.81
2024-04-30T12:26:42.790Z,165.54
2024-04-30T12:27:42.823Z,165.02
2024-04-30T12:28:42.948Z,164.05
2024-04-30T12:29:43.285Z,163.13
2024-04-30T12:30:42.878Z,164.18
2024-04-30T12:31:43.071Z,163.30
2024-04-30T12:32:43.054Z,163.50
2024-04-30T12:33:43.360Z,162.55
2024-04-30T12:34:43.380Z,162.60
2024-04-30T12:35:43.364Z,162.63
2024-04-30T12:36:43.699Z,162.09
2024-04-30T12:37:43.589Z,162.52
2024-04-30T12:38:43.716Z,160.62